createdAt,value
2023-04-10T00:01:24.091Z,111.28
2023-04-10T00:03:52.122Z,114.32
2023-04-10T00:06:19.601Z,111.40
2023-04-10T00:08:46.826Z,121.55
2023-04-10T00:11:14.171Z,114.78
2023-04-10T00:13:41.386Z,109.30
2023-04-10T00:16:08.778Z,109.82
2023-04-10T00:18:36.135Z,103.60
2023-04-10T00:21:04.231Z,115.72
2023-04-10T00:23:32.796Z,101.07
2023-04-10T00:26:00.153Z,117.97
2023-04-10T00:28:27.703Z,134.40
2023-04-10T00:30:54.833Z,122.40
2023-04-10T00:33:22.074Z,123.65
2023-04-10T00:35:49.886Z,124.35
2023-04-10T00:38:17.466Z,116.65
2023-04-10T00:40:44.693Z,126.72
2023-04-10T00:43:12.434Z,144.85
2023-04-10T00:45:40.462Z,134.45
2023-04-10T00:48:08.266Z,139.95
2023-04-10T00:50:35.525Z,135.13
2023-04-10T00:53:03.726Z,134.05
2023-04-10T00:55:31.243Z,124.95
2023-04-10T00:57:58.825Z,153.65
2023-04-10T01:00:26.208Z,136.80
2023-04-10T01:02:55.679Z,135.18
2023-04-10T01:05:24.041Z,134.35
2023-04-10T01:08:15.875Z,150.88
2023-04-10T01:11:30.907Z,132.23
2023-04-10T01:14:16.544Z,125.45
2023-04-10T01:16:54.293Z,140.05
2023-04-10T01:20:01.835Z,163.73
2023-04-10T01:22:35.923Z,141.68
2023-04-10T01:25:40.579Z,141.07
2023-04-10T01:28:33.498Z,135.13
2023-04-10T01:31:02.761Z,136.93
2023-04-10T01:33:51.053Z,145.20
2023-04-10T01:36:28.202Z,134.63
2023-04-10T01:38:57.937Z,152.75
2023-04-10T01:41:26.658Z,153.88
2023-04-10T01:43:55.864Z,150.93
2023-04-10T01:46:24.792Z,144.32
2023-04-10T01:48:54.097Z,144.05
2023-04-10T01:51:22.396Z,135.60
2023-04-10T01:53:51.722Z,131.48
2023-04-10T01:56:24.086Z,138.48
2023-04-10T01:58:51.688Z,137.35
2023-04-10T02:01:29.537Z,130.95
2023-04-10T02:03:59.391Z,139.82
2023-04-10T02:06:37.622Z,138.73
2023-04-10T02:09:46.498Z,144.43
2023-04-10T02:12:21.691Z,139.13
2023-04-10T02:14:50.808Z,141.82
2023-04-10T02:17:26.720Z,142.80
2023-04-10T02:19:57.222Z,148.25
2023-04-10T02:22:25.856Z,142.40
2023-04-10T02:24:54.223Z,141.93
2023-04-10T02:27:34.076Z,147.38
2023-04-10T02:30:03.628Z,147.52
2023-04-10T02:32:33.730Z,151.00
2023-04-10T02:35:02.800Z,155.15
2023-04-10T02:37:31.464Z,142.70
2023-04-10T02:40:01.532Z,149.07
2023-04-10T02:42:35.899Z,161.55
2023-04-10T02:45:03.626Z,155.23
2023-04-10T02:47:36.798Z,171.13
2023-04-10T02:50:04.350Z,175.73
2023-04-10T02:52:35.848Z,167.27
2023-04-10T02:55:03.537Z,183.55
2023-04-10T02:57:36.237Z,169.32
2023-04-10T03:00:05.309Z,258.60
2023-04-10T03:02:53.733Z,161.32
2023-04-10T03:05:21.772Z,297.00
2023-04-10T03:07:49.073Z,206.13
2023-04-10T03:10:16.570Z,194.98
2023-04-10T03:12:43.853Z,266.05
2023-04-10T03:15:11.943Z,232.57
2023-04-10T03:17:39.209Z,228.10
2023-04-10T03:20:08.734Z,250.00
2023-04-10T03:22:36.553Z,199.30
2023-04-10T03:25:03.975Z,323.92
2023-04-10T03:27:34.743Z,302.23
2023-04-10T03:30:03.128Z,270.02
2023-04-10T03:32:39.106Z,208.05
2023-04-10T03:35:07.221Z,322.55
2023-04-10T03:37:34.454Z,330.70
2023-04-10T03:40:01.684Z,212.27
2023-04-10T03:42:30.046Z,237.13
2023-04-10T03:44:57.240Z,245.20
2023-04-10T03:47:24.607Z,189.48
2023-04-10T03:49:53.110Z,204.15
2023-04-10T03:52:20.610Z,187.82
2023-04-10T03:54:48.175Z,333.52
2023-04-10T03:57:24.549Z,222.68
2023-04-10T03:59:55.694Z,242.13
2023-04-10T04:02:23.346Z,221.90
2023-04-10T04:04:50.889Z,222.60
2023-04-10T04:07:41.104Z,223.85
2023-04-10T04:10:20.844Z,209.68
2023-04-10T04:13:02.974Z,177.80
2023-04-10T04:15:43.526Z,203.50
2023-04-10T04:18:29.118Z,212.30
2023-04-10T04:21:16.434Z,200.40
2023-04-10T04:24:00.046Z,198.18
2023-04-10T04:26:47.492Z,182.15
2023-04-10T04:29:52.925Z,166.63
2023-04-10T04:32:26.120Z,181.23
2023-04-10T04:35:04.596Z,165.73
2023-04-10T04:38:07.408Z,271.85
2023-04-10T04:40:57.847Z,226.43
2023-04-10T04:43:41.824Z,185.50
2023-04-10T04:46:30.170Z,240.05
2023-04-10T04:49:15.996Z,178.90
2023-04-10T04:52:18.733Z,177.00
2023-04-10T04:54:58.149Z,222.50
2023-04-10T04:57:45.662Z,191.57
2023-04-10T05:00:26.296Z,180.48
2023-04-10T05:02:53.720Z,190.93
2023-04-10T05:05:33.284Z,166.65
2023-04-10T05:08:27.208Z,146.77
2023-04-10T05:11:00.599Z,160.20
2023-04-10T05:14:03.339Z,172.13
2023-04-10T05:16:42.073Z,147.45
2023-04-10T05:19:21.476Z,167.57
2023-04-10T05:22:14.038Z,133.95
2023-04-10T05:24:44.319Z,139.00
2023-04-10T05:27:29.100Z,121.80
2023-04-10T05:30:19.738Z,131.32
2023-04-10T05:33:07.688Z,130.90
2023-04-10T05:36:05.550Z,124.88
2023-04-10T05:38:52.836Z,138.65
2023-04-10T05:41:46.535Z,154.65
2023-04-10T05:44:26.249Z,145.52
2023-04-10T05:47:06.314Z,153.48
2023-04-10T05:50:12.029Z,131.05
2023-04-10T05:52:55.633Z,129.43
2023-04-10T05:55:41.390Z,137.40
2023-04-10T05:58:39.020Z,124.93
2023-04-10T06:01:08.866Z,104.80
2023-04-10T06:03:59.598Z,114.10
2023-04-10T06:06:27.243Z,113.03
2023-04-10T06:08:54.738Z,131.15
2023-04-10T06:11:22.696Z,151.93
2023-04-10T06:13:53.726Z,122.60
2023-04-10T06:16:26.838Z,134.10
2023-04-10T06:18:55.325Z,121.97
2023-04-10T06:21:22.713Z,108.50
2023-04-10T06:23:50.224Z,115.15
2023-04-10T06:26:19.100Z,102.75
2023-04-10T06:28:46.768Z,105.25
2023-04-10T06:31:16.165Z,107.32
2023-04-10T06:33:44.259Z,98.97
2023-04-10T06:36:11.692Z,98.93
2023-04-10T06:38:45.291Z,96.82
2023-04-10T06:41:13.741Z,80.45
2023-04-10T06:43:41.202Z,80.75
2023-04-10T06:46:08.848Z,86.07
2023-04-10T06:48:36.184Z,83.20
2023-04-10T06:51:04.048Z,104.68
2023-04-10T06:53:31.486Z,97.30
2023-04-10T06:56:01.566Z,96.43
2023-04-10T06:58:30.903Z,91.22
2023-04-10T07:00:59.033Z,89.68
2023-04-10T07:03:26.431Z,90.60
2023-04-10T07:05:53.798Z,81.15
2023-04-10T07:08:21.092Z,75.35
2023-04-10T07:10:48.457Z,73.60
2023-04-10T07:13:15.765Z,69.68
2023-04-10T07:15:43.081Z,82.40
2023-04-10T07:18:10.384Z,84.60
2023-04-10T07:20:38.317Z,78.97
2023-04-10T07:23:05.930Z,71.03
2023-04-10T07:25:34.332Z,79.22
2023-04-10T07:28:01.643Z,85.13
2023-04-10T07:30:28.886Z,87.47
2023-04-10T07:32:56.385Z,90.43
2023-04-10T07:35:23.846Z,91.72
2023-04-10T07:37:52.712Z,95.88
2023-04-10T07:40:19.970Z,80.28
2023-04-10T07:42:47.651Z,88.68
2023-04-10T07:45:15.038Z,95.93
2023-04-10T07:47:42.501Z,86.45
2023-04-10T07:50:09.984Z,90.03
2023-04-10T07:52:37.411Z,89.15
2023-04-10T07:55:05.365Z,87.55
2023-04-10T07:57:32.656Z,90.65
2023-04-10T07:59:59.904Z,89.53
2023-04-10T08:02:27.227Z,90.88
2023-04-10T08:04:54.847Z,88.13
2023-04-10T08:07:22.658Z,93.28
2023-04-10T08:09:49.913Z,89.20
2023-04-10T08:12:17.764Z,87.20
2023-04-10T08:14:45.323Z,92.53
2023-04-10T08:17:15.003Z,90.47
2023-04-10T08:19:43.549Z,87.55
2023-04-10T08:22:11.214Z,96.25
2023-04-10T08:24:38.632Z,90.28
2023-04-10T08:27:05.913Z,79.57
2023-04-10T08:29:33.091Z,94.38
2023-04-10T08:32:01.254Z,91.80
2023-04-10T08:34:28.770Z,90.22
2023-04-10T08:36:57.645Z,94.72
2023-04-10T08:39:25.036Z,100.72
2023-04-10T08:41:52.521Z,98.53
2023-04-10T08:44:19.816Z,90.80
2023-04-10T08:46:48.684Z,92.78
2023-04-10T08:49:45.999Z,96.95
2023-04-10T08:52:25.034Z,102.68
2023-04-10T08:54:56.333Z,99.50
2023-04-10T08:57:24.310Z,102.93
2023-04-10T08:59:52.041Z,98.97
2023-04-10T09:02:20.354Z,103.03
2023-04-10T09:04:55.403Z,105.13
2023-04-10T09:07:23.527Z,94.28
2023-04-10T09:09:50.961Z,99.53
2023-04-10T09:12:18.203Z,93.80
2023-04-10T09:14:45.604Z,107.53
2023-04-10T09:17:24.783Z,104.32
2023-04-10T09:19:56.349Z,98.38
2023-04-10T09:22:36.547Z,107.47
2023-04-10T09:25:05.156Z,105.53
2023-04-10T09:27:35.698Z,105.93
2023-04-10T09:32:46.705Z,97.40
2023-04-10T09:35:16.397Z,93.95
2023-04-10T09:37:46.556Z,89.65
2023-04-10T09:40:21.757Z,98.82
2023-04-10T09:42:49.122Z,99.28
2023-04-10T09:45:20.248Z,106.15
2023-04-10T09:48:08.337Z,96.18
2023-04-10T09:50:41.210Z,100.15
2023-04-10T09:53:11.451Z,91.22
2023-04-10T09:55:39.608Z,83.00
2023-04-10T09:58:07.827Z,91.95
2023-04-10T10:00:43.751Z,94.43
2023-04-10T10:03:21.128Z,91.63
2023-04-10T10:05:52.782Z,94.30
2023-04-10T10:08:21.612Z,99.47
2023-04-10T10:10:53.765Z,86.57
2023-04-10T10:13:54.985Z,98.18
2023-04-10T10:16:50.030Z,90.50
2023-04-10T10:19:37.397Z,90.75
2023-04-10T10:22:05.649Z,97.63
2023-04-10T10:24:35.021Z,84.80
2023-04-10T10:27:04.559Z,86.82
2023-04-10T10:29:34.924Z,97.07
2023-04-10T10:32:05.993Z,92.25
2023-04-10T10:34:33.904Z,101.63
2023-04-10T10:37:02.708Z,89.30
2023-04-10T10:39:47.920Z,101.32
2023-04-10T10:42:53.401Z,87.07
2023-04-10T10:45:38.148Z,98.30
2023-04-10T10:48:07.453Z,94.40
2023-04-10T10:50:58.981Z,94.53
2023-04-10T10:53:36.841Z,98.78
2023-04-10T10:56:19.336Z,103.72
2023-04-10T10:58:56.306Z,94.82
2023-04-10T11:01:24.215Z,100.15
2023-04-10T11:03:51.800Z,91.32
2023-04-10T11:06:50.182Z,94.80
2023-04-10T11:09:48.685Z,98.22
2023-04-10T11:12:19.330Z,92.50
2023-04-10T11:14:59.271Z,94.53
2023-04-10T11:17:51.792Z,92.32
2023-04-10T11:20:27.460Z,90.78
2023-04-10T11:23:12.735Z,84.65
2023-04-10T11:25:52.068Z,97.28
2023-04-10T11:28:41.169Z,96.20
2023-04-10T11:31:37.912Z,94.78
2023-04-10T11:34:10.703Z,88.28
2023-04-10T11:36:44.774Z,92.60
2023-04-10T11:39:20.716Z,90.70
2023-04-10T11:41:52.653Z,90.55
2023-04-10T11:44:25.930Z,88.82
2023-04-10T11:46:54.401Z,90.80
2023-04-10T11:49:28.182Z,101.30
2023-04-10T11:51:55.999Z,96.30
2023-04-10T11:54:28.625Z,108.60
2023-04-10T11:57:13.109Z,97.85
2023-04-10T11:59:40.814Z,104.40
2023-04-10T12:02:16.051Z,102.75
2023-04-10T12:04:44.649Z,103.03
2023-04-10T12:07:12.188Z,101.85
2023-04-10T12:09:39.581Z,94.32
2023-04-10T12:12:08.366Z,98.97
2023-04-10T12:14:39.575Z,85.35
2023-04-10T12:17:10.108Z,94.45
2023-04-10T12:19:39.468Z,104.70
2023-04-10T12:22:07.825Z,104.70
2023-04-10T12:24:49.657Z,105.93
2023-04-10T12:27:27.077Z,91.60
2023-04-10T12:29:58.096Z,110.07
2023-04-10T12:32:27.768Z,97.70
2023-04-10T12:34:58.370Z,96.38
2023-04-10T12:37:46.678Z,111.53
2023-04-10T12:40:14.949Z,105.80
2023-04-10T12:42:43.546Z,118.80
2023-04-10T12:45:13.958Z,114.90
2023-04-10T12:47:52.628Z,99.30
2023-04-10T12:50:21.254Z,101.03
2023-04-10T12:53:09.433Z,110.53
2023-04-10T12:55:37.614Z,110.80
2023-04-10T12:58:20.757Z,113.90
2023-04-10T13:00:48.578Z,106.90
2023-04-10T13:03:16.425Z,104.78
2023-04-10T13:05:44.621Z,107.85
2023-04-10T13:08:12.222Z,103.68
2023-04-10T13:10:40.647Z,114.05
2023-04-10T13:13:08.500Z,119.68
2023-04-10T13:15:35.820Z,114.72
2023-04-10T13:18:05.760Z,113.10
2023-04-10T13:20:37.963Z,109.57
2023-04-10T13:23:06.033Z,122.07
2023-04-10T13:25:37.036Z,108.80
2023-04-10T13:28:10.164Z,111.28
2023-04-10T13:30:42.477Z,107.75
2023-04-10T13:33:10.426Z,103.22
2023-04-10T13:35:40.140Z,109.75
2023-04-10T13:38:09.438Z,113.22
2023-04-10T13:40:36.967Z,106.35
2023-04-10T13:43:06.472Z,101.75
2023-04-10T13:45:34.958Z,97.57
2023-04-10T13:48:02.499Z,94.03
2023-04-10T13:50:30.038Z,89.75
2023-04-10T13:52:57.305Z,92.78
2023-04-10T13:55:24.697Z,84.53
2023-04-10T13:57:52.396Z,79.55
2023-04-10T14:00:19.709Z,86.05
2023-04-10T14:02:47.081Z,83.38
2023-04-10T14:05:14.548Z,90.68
2023-04-10T14:07:41.836Z,81.75
2023-04-10T14:10:09.952Z,89.65
2023-04-10T14:12:37.916Z,87.30
2023-04-10T14:15:06.046Z,95.40
2023-04-10T14:17:34.066Z,95.95
2023-04-10T14:20:01.820Z,91.07
2023-04-10T14:22:30.356Z,83.03
2023-04-10T14:25:09.259Z,96.72
2023-04-10T14:27:39.522Z,88.88
2023-04-10T14:30:07.862Z,96.25
2023-04-10T14:32:35.521Z,89.65
2023-04-10T14:35:02.840Z,90.80
2023-04-10T14:37:30.106Z,82.78
2023-04-10T14:39:57.394Z,85.20
2023-04-10T14:42:24.818Z,79.32
2023-04-10T14:44:52.103Z,77.10
2023-04-10T14:47:19.495Z,82.10
2023-04-10T14:49:46.739Z,70.95
2023-04-10T14:52:14.087Z,78.55
2023-04-10T14:54:41.386Z,77.22
2023-04-10T14:57:09.885Z,75.00
2023-04-10T14:59:37.285Z,79.90
2023-04-10T15:02:04.697Z,64.03
2023-04-10T15:04:32.145Z,68.75
2023-04-10T15:06:59.494Z,68.57
2023-04-10T15:09:27.524Z,76.50
2023-04-10T15:11:56.944Z,61.83
2023-04-10T15:14:24.264Z,68.03
2023-04-10T15:16:53.976Z,67.38
2023-04-10T15:19:21.611Z,64.65
2023-04-10T15:21:48.968Z,67.00
2023-04-10T15:24:16.300Z,62.72
2023-04-10T15:26:45.881Z,71.00
2023-04-10T15:29:14.003Z,66.67
2023-04-10T15:31:41.706Z,67.00
2023-04-10T15:34:10.443Z,67.43
2023-04-10T15:36:37.779Z,61.55
2023-04-10T15:39:05.320Z,72.90
2023-04-10T15:41:33.240Z,75.28
2023-04-10T15:44:00.697Z,67.72
2023-04-10T15:46:29.179Z,68.85
2023-04-10T15:48:56.452Z,70.18
2023-04-10T15:51:23.700Z,68.93
2023-04-10T15:53:51.094Z,64.40
2023-04-10T15:56:18.258Z,65.30
2023-04-10T15:58:45.529Z,68.70
2023-04-10T16:01:12.837Z,72.32
2023-04-10T16:03:40.908Z,74.40
2023-04-10T16:06:08.858Z,70.32
2023-04-10T16:08:36.265Z,73.75
2023-04-10T16:11:03.770Z,71.75
2023-04-10T16:13:31.108Z,78.13
2023-04-10T16:15:58.468Z,66.18
2023-04-10T16:18:25.828Z,72.30
2023-04-10T16:20:53.200Z,80.32
2023-04-10T16:23:20.568Z,74.60
2023-04-10T16:25:47.828Z,69.50
2023-04-10T16:28:15.123Z,69.03
2023-04-10T16:30:42.443Z,76.63
2023-04-10T16:33:09.832Z,66.00
2023-04-10T16:35:37.121Z,69.47
2023-04-10T16:38:04.396Z,77.85
2023-04-10T16:40:33.022Z,81.45
2023-04-10T16:43:02.079Z,73.15
2023-04-10T16:45:29.762Z,77.95
2023-04-10T16:47:57.068Z,78.25
2023-04-10T16:50:24.361Z,73.75
2023-04-10T16:52:51.681Z,69.80
2023-04-10T16:55:18.987Z,77.82
2023-04-10T16:57:46.695Z,70.20
2023-04-10T17:00:14.493Z,76.90
2023-04-10T17:02:43.139Z,75.80
2023-04-10T17:05:11.456Z,79.15
2023-04-10T17:07:38.679Z,84.30
2023-04-10T17:10:06.537Z,80.78
2023-04-10T17:12:33.994Z,76.13
2023-04-10T17:15:01.391Z,81.40
2023-04-10T17:17:28.820Z,76.65
2023-04-10T17:19:56.647Z,72.88
2023-04-10T17:22:24.037Z,71.13
2023-04-10T17:24:51.404Z,83.97
2023-04-10T17:27:19.050Z,76.20
2023-04-10T17:29:46.355Z,79.15
2023-04-10T17:32:13.894Z,75.10
2023-04-10T17:34:41.222Z,86.13
2023-04-10T17:37:08.571Z,86.40
2023-04-10T17:39:35.873Z,78.90
2023-04-10T17:42:03.424Z,85.65
2023-04-10T17:44:31.407Z,84.25
2023-04-10T17:46:58.840Z,79.97
2023-04-10T17:49:26.548Z,80.35
2023-04-10T17:51:53.884Z,82.75
2023-04-10T17:54:21.051Z,92.45
2023-04-10T17:56:48.490Z,77.82
2023-04-10T17:59:15.774Z,85.43
2023-04-10T18:01:43.204Z,91.00
2023-04-10T18:04:10.861Z,90.90
2023-04-10T18:06:38.234Z,94.68
2023-04-10T18:09:06.024Z,88.88
2023-04-10T18:11:33.365Z,101.57
2023-04-10T18:14:00.660Z,87.13
2023-04-10T18:16:27.948Z,95.28
2023-04-10T18:18:55.619Z,100.68
2023-04-10T18:21:23.263Z,87.00
2023-04-10T18:23:50.554Z,91.18
2023-04-10T18:26:21.030Z,98.75
2023-04-10T18:28:48.480Z,91.32
2023-04-10T18:31:16.808Z,93.35
2023-04-10T18:33:45.468Z,79.50
2023-04-10T18:36:14.220Z,80.97
2023-04-10T18:38:43.921Z,96.57
2023-04-10T18:41:11.442Z,95.57
2023-04-10T18:43:39.211Z,89.32
2023-04-10T18:46:07.117Z,79.47
2023-04-10T18:48:36.074Z,84.00
2023-04-10T18:51:03.533Z,92.95
2023-04-10T18:53:31.090Z,90.10
2023-04-10T18:55:58.507Z,88.68
2023-04-10T18:58:25.987Z,83.28
2023-04-10T19:00:54.284Z,102.93
2023-04-10T19:03:21.577Z,87.35
2023-04-10T19:05:48.948Z,76.55
2023-04-10T19:08:17.210Z,93.47
2023-04-10T19:10:44.523Z,89.50
2023-04-10T19:13:12.925Z,100.22
2023-04-10T19:15:47.912Z,102.38
2023-04-10T19:18:16.527Z,103.30
2023-04-10T19:20:52.049Z,110.75
2023-04-10T19:23:20.911Z,97.63
2023-04-10T19:25:55.253Z,101.55
2023-04-10T19:28:24.589Z,106.05
2023-04-10T19:30:52.812Z,100.40
2023-04-10T19:33:20.616Z,105.50
2023-04-10T19:35:47.981Z,94.95
2023-04-10T19:38:15.264Z,97.18
2023-04-10T19:40:44.426Z,98.15
2023-04-10T19:43:12.464Z,95.43
2023-04-10T19:45:40.487Z,98.30
2023-04-10T19:48:09.657Z,100.63
2023-04-10T19:50:37.262Z,106.20
2023-04-10T19:53:05.228Z,119.25
2023-04-10T19:55:32.836Z,99.65
2023-04-10T19:58:00.330Z,100.00
2023-04-10T20:00:27.614Z,113.75
2023-04-10T20:02:55.190Z,122.20
2023-04-10T20:05:22.613Z,128.77
2023-04-10T20:07:50.486Z,113.30
2023-04-10T20:10:17.785Z,124.10
2023-04-10T20:12:45.430Z,144.88
2023-04-10T20:15:12.979Z,116.07
2023-04-10T20:17:40.877Z,103.70
2023-04-10T20:20:09.172Z,135.57
2023-04-10T20:22:36.565Z,128.15
2023-04-10T20:25:04.074Z,123.20
2023-04-10T20:27:31.539Z,113.35
2023-04-10T20:29:58.802Z,114.80
2023-04-10T20:32:26.113Z,98.78
2023-04-10T20:34:53.303Z,99.75
2023-04-10T20:37:22.021Z,102.80
2023-04-10T20:39:49.749Z,124.25
2023-04-10T20:42:17.246Z,123.22
2023-04-10T20:44:44.574Z,111.32
2023-04-10T20:47:11.896Z,135.70
2023-04-10T20:49:39.300Z,129.80
2023-04-10T20:52:07.264Z,133.05
2023-04-10T20:54:34.681Z,115.90
2023-04-10T20:57:02.097Z,105.90
2023-04-10T20:59:33.505Z,116.40
2023-04-10T21:02:01.103Z,117.38
2023-04-10T21:04:28.542Z,104.70
2023-04-10T21:06:55.922Z,114.47
2023-04-10T21:09:23.146Z,119.50
2023-04-10T21:11:50.426Z,109.28
2023-04-10T21:14:17.618Z,107.43
2023-04-10T21:16:46.031Z,100.50
2023-04-10T21:19:14.117Z,104.03
2023-04-10T21:21:41.436Z,108.57
2023-04-10T21:24:08.728Z,98.78
2023-04-10T21:26:35.908Z,108.30
2023-04-10T21:29:03.197Z,91.93
2023-04-10T21:31:30.785Z,99.13
2023-04-10T21:33:58.024Z,82.35
2023-04-10T21:36:26.604Z,86.97
2023-04-10T21:38:54.087Z,92.05
2023-04-10T21:41:21.783Z,80.80
2023-04-10T21:43:49.170Z,85.28
2023-04-10T21:46:16.534Z,92.20
2023-04-10T21:48:43.915Z,92.50
2023-04-10T21:51:11.162Z,90.35
2023-04-10T21:53:38.404Z,108.15
2023-04-10T21:56:06.108Z,107.22
2023-04-10T21:58:33.413Z,97.25
2023-04-10T22:01:01.222Z,104.88
2023-04-10T22:03:28.783Z,106.38
2023-04-10T22:05:56.082Z,91.60
2023-04-10T22:08:23.369Z,89.35
2023-04-10T22:10:51.058Z,86.95
2023-04-10T22:13:30.308Z,94.45
2023-04-10T22:15:59.982Z,91.70
2023-04-10T22:18:27.298Z,102.55
2023-04-10T22:20:54.536Z,95.63
2023-04-10T22:23:21.762Z,97.55
2023-04-10T22:25:49.059Z,98.35
2023-04-10T22:28:16.232Z,100.00
2023-04-10T22:30:43.435Z,116.00
2023-04-10T22:33:12.066Z,107.40
2023-04-10T22:35:39.407Z,138.65
2023-04-10T22:38:07.824Z,520.00
2023-04-10T22:40:35.411Z,173.45
2023-04-10T22:43:02.738Z,112.18
2023-04-10T22:45:30.032Z,136.38
2023-04-10T22:47:57.589Z,93.82
2023-04-10T22:50:24.884Z,94.65
2023-04-10T22:52:52.293Z,84.88
2023-04-10T22:55:19.712Z,79.32
2023-04-10T22:57:49.863Z,81.78
2023-04-10T23:00:17.340Z,81.57
2023-04-10T23:02:44.615Z,96.07
2023-04-10T23:05:11.879Z,75.70
2023-04-10T23:07:39.086Z,101.07
2023-04-10T23:10:07.401Z,104.25
2023-04-10T23:12:34.661Z,130.02
2023-04-10T23:15:01.833Z,121.82
2023-04-10T23:17:29.084Z,122.45
2023-04-10T23:19:56.333Z,119.45
2023-04-10T23:22:23.621Z,132.73
2023-04-10T23:24:55.057Z,109.30
2023-04-10T23:27:22.337Z,122.45
2023-04-10T23:29:50.219Z,102.10
2023-04-10T23:32:17.408Z,112.35
2023-04-10T23:34:44.685Z,126.07
2023-04-10T23:37:11.924Z,112.65
2023-04-10T23:39:39.748Z,229.10
2023-04-10T23:42:06.976Z,133.65
2023-04-10T23:44:34.321Z,126.53
2023-04-10T23:47:01.581Z,138.05
2023-04-10T23:49:29.145Z,132.93
2023-04-10T23:51:56.299Z,122.38
2023-04-10T23:54:23.556Z,101.57
2023-04-10T23:56:50.687Z,117.85
2023-04-10T23:59:19.190Z,219.68
